createdAt,value
2022-12-25T00:01:07.512Z,5.30
2022-12-25T00:03:34.491Z,5.30
2022-12-25T00:06:01.446Z,5.30
2022-12-25T00:08:28.262Z,5.30
2022-12-25T00:11:02.457Z,5.30
2022-12-25T00:13:29.339Z,5.30
2022-12-25T00:15:56.146Z,5.20
2022-12-25T00:18:23.280Z,5.30
2022-12-25T00:20:57.306Z,5.30
2022-12-25T00:23:24.084Z,5.30
2022-12-25T00:25:50.987Z,5.30
2022-12-25T00:28:17.877Z,5.30
2022-12-25T00:30:44.633Z,5.30
2022-12-25T00:33:11.356Z,5.30
2022-12-25T00:35:38.150Z,5.30
2022-12-25T00:38:04.955Z,5.30
2022-12-25T00:40:31.711Z,5.40
2022-12-25T00:42:58.742Z,5.30
2022-12-25T00:45:25.622Z,5.30
2022-12-25T00:47:52.345Z,5.30
2022-12-25T00:50:19.175Z,5.30
2022-12-25T00:52:45.890Z,5.30
2022-12-25T00:55:12.593Z,5.30
2022-12-25T00:57:39.328Z,5.30
2022-12-25T01:00:06.400Z,5.30
2022-12-25T01:02:33.237Z,5.30
2022-12-25T01:05:00.140Z,5.30
2022-12-25T01:07:27.259Z,5.30
2022-12-25T01:10:12.774Z,5.30
2022-12-25T01:12:41.892Z,5.30
2022-12-25T01:15:09.619Z,5.30
2022-12-25T01:17:36.790Z,5.30
2022-12-25T01:20:03.865Z,5.50
2022-12-25T01:22:30.544Z,5.20
2022-12-25T01:24:57.273Z,5.30
2022-12-25T01:27:24.225Z,5.20
2022-12-25T01:29:50.934Z,5.20
2022-12-25T01:32:17.659Z,5.30
2022-12-25T01:34:44.386Z,5.30
2022-12-25T01:37:11.124Z,5.30
2022-12-25T01:39:37.973Z,5.30
2022-12-25T01:42:04.747Z,5.40
2022-12-25T01:44:37.479Z,5.40
2022-12-25T01:47:05.034Z,5.40
2022-12-25T01:49:33.133Z,5.50
2022-12-25T01:52:02.909Z,5.50
2022-12-25T01:54:34.404Z,5.60
2022-12-25T01:57:04.278Z,5.60
2022-12-25T01:59:31.186Z,5.60
2022-12-25T02:01:59.973Z,5.70
2022-12-25T02:04:40.021Z,5.60
2022-12-25T02:07:13.132Z,5.70
2022-12-25T02:09:39.932Z,5.70
2022-12-25T02:12:07.682Z,5.60
2022-12-25T02:14:35.530Z,5.60
2022-12-25T02:17:11.599Z,5.70
2022-12-25T02:19:56.571Z,5.70
2022-12-25T02:22:29.522Z,5.70
2022-12-25T02:25:14.899Z,5.70
2022-12-25T02:27:44.681Z,5.70
2022-12-25T02:30:11.655Z,5.80
2022-12-25T02:32:51.869Z,5.70
2022-12-25T02:35:23.949Z,5.70
2022-12-25T02:37:56.834Z,5.70
2022-12-25T02:40:26.335Z,5.80
2022-12-25T02:43:16.960Z,5.80
2022-12-25T02:46:08.494Z,5.80
2022-12-25T02:48:57.008Z,5.80
2022-12-25T02:51:44.338Z,5.90
2022-12-25T02:54:31.588Z,6.10
2022-12-25T02:57:17.939Z,5.90
2022-12-25T03:00:05.474Z,6.00
2022-12-25T03:02:52.105Z,6.00
2022-12-25T03:05:43.387Z,6.00
2022-12-25T03:08:13.506Z,6.00
2022-12-25T03:11:00.561Z,6.00
2022-12-25T03:13:29.130Z,6.20
2022-12-25T03:16:14.683Z,6.00
2022-12-25T03:18:41.804Z,6.10
2022-12-25T03:21:27.183Z,6.10
2022-12-25T03:24:14.241Z,6.10
2022-12-25T03:26:56.287Z,6.10
2022-12-25T03:29:43.425Z,6.10
2022-12-25T03:32:13.098Z,6.10
2022-12-25T03:35:11.880Z,6.20
2022-12-25T03:38:19.819Z,6.10
2022-12-25T03:41:14.445Z,6.20
2022-12-25T03:44:07.393Z,6.30
2022-12-25T03:46:54.424Z,6.40
2022-12-25T03:49:45.500Z,6.30
2022-12-25T03:52:32.329Z,6.30
2022-12-25T03:55:18.826Z,6.40
2022-12-25T03:58:04.476Z,6.40
2022-12-25T04:00:49.791Z,6.40
2022-12-25T04:03:35.391Z,6.40
2022-12-25T04:06:20.848Z,6.40
2022-12-25T04:09:06.312Z,6.50
2022-12-25T04:11:54.035Z,6.50
2022-12-25T04:14:43.397Z,6.60
2022-12-25T04:17:28.534Z,6.60
2022-12-25T04:20:14.125Z,6.60
2022-12-25T04:22:59.605Z,6.60
2022-12-25T04:25:45.223Z,6.70
2022-12-25T04:28:30.760Z,6.70
2022-12-25T04:31:18.728Z,6.70
2022-12-25T04:34:04.206Z,6.80
2022-12-25T04:36:30.927Z,6.80
2022-12-25T04:38:57.728Z,6.80
2022-12-25T04:41:24.483Z,6.90
2022-12-25T04:43:51.252Z,6.90
2022-12-25T04:46:17.959Z,6.90
2022-12-25T04:48:44.717Z,7.00
2022-12-25T04:51:16.277Z,7.00
2022-12-25T04:53:43.240Z,7.10
2022-12-25T04:56:10.062Z,7.10
2022-12-25T04:58:36.869Z,7.10
2022-12-25T05:01:04.426Z,7.20
2022-12-25T05:03:31.752Z,7.20
2022-12-25T05:05:58.895Z,7.20
2022-12-25T05:08:26.140Z,7.20
2022-12-25T05:10:52.935Z,7.30
2022-12-25T05:13:19.696Z,7.30
2022-12-25T05:15:46.620Z,7.30
2022-12-25T05:18:13.353Z,7.30
2022-12-25T05:20:40.601Z,7.30
2022-12-25T05:23:08.428Z,7.30
2022-12-25T05:25:38.205Z,7.30
2022-12-25T05:28:04.959Z,7.40
2022-12-25T05:30:31.679Z,7.40
2022-12-25T05:32:58.364Z,7.40
2022-12-25T05:35:25.130Z,7.40
2022-12-25T05:37:51.830Z,7.40
2022-12-25T05:40:18.599Z,7.50
2022-12-25T05:42:45.366Z,7.50
2022-12-25T05:45:12.682Z,7.50
2022-12-25T05:47:39.457Z,7.50
2022-12-25T05:50:06.484Z,7.60
2022-12-25T05:52:33.780Z,7.60
2022-12-25T05:55:03.782Z,7.60
2022-12-25T05:57:31.183Z,7.60
2022-12-25T05:59:58.234Z,7.60
2022-12-25T06:02:25.373Z,7.60
2022-12-25T06:04:52.223Z,7.60
2022-12-25T06:07:19.336Z,7.60
2022-12-25T06:09:46.029Z,7.60
2022-12-25T06:12:12.976Z,7.60
2022-12-25T06:14:39.705Z,7.60
2022-12-25T06:17:06.404Z,7.60
2022-12-25T06:19:33.127Z,7.70
2022-12-25T06:21:59.939Z,7.60
2022-12-25T06:24:36.776Z,7.60
2022-12-25T06:27:03.515Z,7.70
2022-12-25T06:29:30.267Z,7.70
2022-12-25T06:31:57.462Z,7.70
2022-12-25T06:34:24.534Z,7.70
2022-12-25T06:36:51.264Z,7.70
2022-12-25T06:39:18.005Z,7.70
2022-12-25T06:41:44.782Z,7.70
2022-12-25T06:44:11.654Z,7.70
2022-12-25T06:46:38.438Z,7.70
2022-12-25T06:49:05.192Z,7.70
2022-12-25T06:51:32.928Z,7.70
2022-12-25T06:54:03.046Z,7.70
2022-12-25T06:56:30.107Z,7.80
2022-12-25T06:58:58.410Z,7.70
2022-12-25T07:01:54.657Z,7.80
2022-12-25T07:04:32.098Z,7.70
2022-12-25T07:07:04.391Z,7.80
2022-12-25T07:09:35.637Z,7.70
2022-12-25T07:12:03.478Z,7.70
2022-12-25T07:14:30.179Z,7.70
2022-12-25T07:16:56.998Z,7.70
2022-12-25T07:19:23.765Z,7.70
2022-12-25T07:21:50.464Z,7.60
2022-12-25T07:24:20.649Z,7.60
2022-12-25T07:26:47.573Z,7.60
2022-12-25T07:29:14.350Z,7.60
2022-12-25T07:31:41.111Z,7.60
2022-12-25T07:34:08.093Z,7.60
2022-12-25T07:36:35.036Z,7.60
2022-12-25T07:39:01.760Z,7.60
2022-12-25T07:41:28.501Z,7.70
2022-12-25T07:43:55.242Z,7.60
2022-12-25T07:46:23.217Z,7.60
2022-12-25T07:48:50.141Z,7.70
2022-12-25T07:51:16.848Z,7.60
2022-12-25T07:53:43.584Z,7.70
2022-12-25T07:56:11.558Z,7.70
2022-12-25T07:58:38.529Z,7.70
2022-12-25T08:01:06.883Z,7.70
2022-12-25T08:03:34.398Z,7.70
2022-12-25T08:06:01.857Z,7.70
2022-12-25T08:08:28.906Z,7.70
2022-12-25T08:10:55.669Z,7.70
2022-12-25T08:13:22.492Z,7.70
2022-12-25T08:15:49.195Z,7.70
2022-12-25T08:18:16.031Z,7.70
2022-12-25T08:20:43.949Z,7.70
2022-12-25T08:23:10.647Z,7.70
2022-12-25T08:25:37.308Z,7.70
2022-12-25T08:28:04.167Z,7.70
2022-12-25T08:30:30.934Z,7.80
2022-12-25T08:32:57.691Z,7.80
2022-12-25T08:35:26.139Z,7.80
2022-12-25T08:37:52.880Z,7.80
2022-12-25T08:40:19.665Z,7.80
2022-12-25T08:42:46.424Z,7.90
2022-12-25T08:45:13.132Z,7.80
2022-12-25T08:47:39.830Z,7.90
2022-12-25T08:50:07.229Z,7.90
2022-12-25T08:52:34.068Z,7.90
2022-12-25T08:55:00.813Z,7.90
2022-12-25T08:57:27.638Z,8.00
2022-12-25T08:59:54.388Z,8.00
2022-12-25T09:03:01.221Z,8.00
2022-12-25T09:05:28.342Z,8.00
2022-12-25T09:07:55.141Z,8.10
2022-12-25T09:10:21.897Z,8.10
2022-12-25T09:12:48.593Z,8.10
2022-12-25T09:15:15.467Z,8.10
2022-12-25T09:17:42.200Z,8.10
2022-12-25T09:20:09.163Z,8.20
2022-12-25T09:22:35.918Z,8.20
2022-12-25T09:25:02.672Z,8.20
2022-12-25T09:27:29.374Z,8.20
2022-12-25T09:29:56.096Z,8.20
2022-12-25T09:32:22.939Z,8.20
2022-12-25T09:34:50.475Z,8.30
2022-12-25T09:37:17.213Z,8.20
2022-12-25T09:39:46.561Z,8.30
2022-12-25T09:42:28.667Z,8.30
2022-12-25T09:45:00.125Z,8.30
2022-12-25T09:47:42.211Z,8.30
2022-12-25T09:50:21.247Z,8.40
2022-12-25T09:52:55.553Z,8.40
2022-12-25T09:55:24.436Z,8.40
2022-12-25T09:57:55.596Z,8.40
2022-12-25T10:00:28.867Z,8.40
2022-12-25T10:03:04.733Z,8.40
2022-12-25T10:05:31.834Z,8.50
2022-12-25T10:08:07.874Z,8.50
2022-12-25T10:10:34.683Z,8.50
2022-12-25T10:13:15.160Z,8.50
2022-12-25T10:16:00.739Z,8.50
2022-12-25T10:18:27.488Z,8.50
2022-12-25T10:20:55.724Z,8.60
2022-12-25T10:23:28.064Z,8.50
2022-12-25T10:25:55.318Z,8.50
2022-12-25T10:28:42.392Z,8.50
2022-12-25T10:31:26.979Z,8.50
2022-12-25T10:33:54.382Z,8.50
2022-12-25T10:36:22.431Z,8.60
2022-12-25T10:38:49.203Z,8.60
2022-12-25T10:41:25.398Z,8.60
2022-12-25T10:43:55.853Z,8.60
2022-12-25T10:46:23.987Z,8.60
2022-12-25T10:48:53.028Z,8.70
2022-12-25T10:51:46.007Z,8.70
2022-12-25T10:54:33.005Z,8.70
2022-12-25T10:57:02.845Z,8.70
2022-12-25T10:59:31.024Z,8.70
2022-12-25T11:02:04.440Z,8.70
2022-12-25T11:04:34.958Z,8.80
2022-12-25T11:07:05.204Z,8.90
2022-12-25T11:09:34.743Z,8.80
2022-12-25T11:12:01.671Z,8.80
2022-12-25T11:14:29.637Z,8.90
2022-12-25T11:17:10.122Z,8.90
2022-12-25T11:19:36.883Z,8.90
2022-12-25T11:22:05.148Z,8.90
2022-12-25T11:24:32.770Z,8.80
2022-12-25T11:27:01.595Z,8.80
2022-12-25T11:29:43.785Z,8.80
2022-12-25T11:32:28.516Z,8.80
2022-12-25T11:34:55.409Z,8.80
2022-12-25T11:37:22.158Z,8.90
2022-12-25T11:39:48.913Z,8.80
2022-12-25T11:42:34.637Z,8.80
2022-12-25T11:45:01.395Z,8.80
2022-12-25T11:47:28.117Z,8.80
2022-12-25T11:50:00.733Z,8.80
2022-12-25T11:52:29.385Z,8.80
2022-12-25T11:55:00.292Z,8.70
2022-12-25T11:57:31.423Z,8.80
2022-12-25T12:00:00.988Z,8.80
2022-12-25T12:02:42.483Z,8.80
2022-12-25T12:05:16.376Z,8.80
2022-12-25T12:07:51.798Z,8.80
2022-12-25T12:10:21.604Z,8.80
2022-12-25T12:12:49.161Z,8.70
2022-12-25T12:15:19.098Z,8.70
2022-12-25T12:17:45.881Z,8.70
2022-12-25T12:20:33.280Z,8.80
2022-12-25T12:23:01.638Z,8.80
2022-12-25T12:25:28.970Z,8.80
2022-12-25T12:28:02.864Z,8.80
2022-12-25T12:30:34.758Z,8.90
2022-12-25T12:33:06.117Z,8.70
2022-12-25T12:35:38.264Z,8.80
2022-12-25T12:38:14.436Z,9.00
2022-12-25T12:40:51.228Z,8.80
2022-12-25T12:43:26.964Z,8.80
2022-12-25T12:45:58.140Z,8.80
2022-12-25T12:48:25.673Z,8.80
2022-12-25T12:51:01.541Z,8.80
2022-12-25T12:53:29.926Z,8.80
2022-12-25T12:55:56.894Z,8.80
2022-12-25T12:58:33.451Z,8.80
2022-12-25T13:01:19.096Z,8.80
2022-12-25T13:04:18.248Z,8.80
2022-12-25T13:06:47.164Z,8.70
2022-12-25T13:09:32.704Z,8.80
2022-12-25T13:11:59.816Z,8.70
2022-12-25T13:14:26.718Z,8.70
2022-12-25T13:16:54.286Z,8.70
2022-12-25T13:19:22.316Z,8.70
2022-12-25T13:22:07.312Z,8.70
2022-12-25T13:24:35.290Z,8.70
2022-12-25T13:27:02.420Z,8.70
2022-12-25T13:29:29.939Z,8.70
2022-12-25T13:31:57.970Z,8.70
2022-12-25T13:34:32.595Z,8.70
2022-12-25T13:37:00.522Z,8.70
2022-12-25T13:39:27.481Z,8.70
2022-12-25T13:42:06.920Z,8.60
2022-12-25T13:44:39.969Z,8.60
2022-12-25T13:47:15.959Z,8.60
2022-12-25T13:49:42.669Z,8.60
2022-12-25T13:52:13.955Z,8.60
2022-12-25T13:54:51.380Z,8.60
2022-12-25T13:57:18.268Z,8.60
2022-12-25T13:59:44.978Z,8.60
2022-12-25T14:02:18.969Z,8.50
2022-12-25T14:04:45.929Z,8.50
2022-12-25T14:07:12.723Z,8.50
2022-12-25T14:09:40.252Z,8.50
2022-12-25T14:12:07.896Z,8.50
2022-12-25T14:14:36.023Z,8.50
2022-12-25T14:17:02.918Z,8.50
2022-12-25T14:19:30.725Z,8.50
2022-12-25T14:22:07.511Z,8.50
2022-12-25T14:24:34.451Z,8.50
2022-12-25T14:27:05.699Z,8.40
2022-12-25T14:29:36.095Z,8.50
2022-12-25T14:32:07.218Z,8.50
2022-12-25T14:34:34.665Z,8.40
2022-12-25T14:37:03.160Z,8.40
2022-12-25T14:39:32.444Z,8.40
2022-12-25T14:41:59.880Z,8.40
2022-12-25T14:44:39.412Z,8.40
2022-12-25T14:47:13.935Z,8.40
2022-12-25T14:49:40.716Z,8.40
2022-12-25T14:52:10.447Z,8.40
2022-12-25T14:54:37.292Z,8.40
2022-12-25T14:57:04.116Z,8.40
2022-12-25T14:59:30.889Z,8.40
2022-12-25T15:01:59.301Z,8.40
2022-12-25T15:04:27.047Z,8.40
2022-12-25T15:06:53.829Z,8.40
2022-12-25T15:09:21.041Z,8.40
2022-12-25T15:11:55.555Z,8.40
2022-12-25T15:14:22.771Z,8.40
2022-12-25T15:16:51.212Z,8.30
2022-12-25T15:19:26.455Z,8.40
2022-12-25T15:21:54.188Z,8.40
2022-12-25T15:24:20.889Z,8.30
2022-12-25T15:26:47.677Z,8.30
2022-12-25T15:29:14.415Z,8.30
2022-12-25T15:31:41.753Z,8.30
2022-12-25T15:34:20.477Z,8.30
2022-12-25T15:36:47.630Z,8.30
2022-12-25T15:39:14.460Z,8.30
2022-12-25T15:42:00.045Z,8.30
2022-12-25T15:44:26.932Z,8.30
2022-12-25T15:46:53.734Z,8.30
2022-12-25T15:49:20.504Z,8.30
2022-12-25T15:51:47.580Z,8.30
2022-12-25T15:54:14.345Z,8.30
2022-12-25T15:56:48.859Z,8.30
2022-12-25T15:59:16.392Z,8.30
2022-12-25T16:01:46.197Z,8.30
2022-12-25T16:04:12.999Z,8.30
2022-12-25T16:06:39.734Z,8.30
2022-12-25T16:09:06.522Z,8.30
2022-12-25T16:11:33.238Z,8.30
2022-12-25T16:13:59.937Z,8.30
2022-12-25T16:16:26.752Z,8.30
2022-12-25T16:18:53.514Z,8.30
2022-12-25T16:21:21.183Z,8.30
2022-12-25T16:23:48.073Z,8.30
2022-12-25T16:26:14.921Z,8.30
2022-12-25T16:28:41.791Z,8.30
2022-12-25T16:31:08.687Z,8.30
2022-12-25T16:33:35.421Z,8.30
2022-12-25T16:36:02.110Z,8.30
2022-12-25T16:38:29.642Z,8.30
2022-12-25T16:40:57.344Z,8.30
2022-12-25T16:43:24.515Z,8.30
2022-12-25T16:45:51.730Z,8.30
2022-12-25T16:48:18.542Z,8.30
2022-12-25T16:50:45.657Z,8.30
2022-12-25T16:53:12.567Z,8.30
2022-12-25T16:55:39.584Z,8.30
2022-12-25T16:58:06.311Z,8.30
2022-12-25T17:00:33.013Z,8.30
2022-12-25T17:03:00.500Z,8.30
2022-12-25T17:05:27.541Z,8.40
2022-12-25T17:07:54.223Z,8.40
2022-12-25T17:10:21.465Z,8.30
2022-12-25T17:12:48.252Z,8.30
2022-12-25T17:15:15.017Z,8.30
2022-12-25T17:17:41.777Z,8.40
2022-12-25T17:20:08.918Z,8.40
2022-12-25T17:22:35.784Z,8.40
2022-12-25T17:25:02.542Z,8.30
2022-12-25T17:27:29.213Z,8.40
2022-12-25T17:29:56.002Z,8.30
2022-12-25T17:32:22.785Z,8.30
2022-12-25T17:34:49.525Z,8.30
2022-12-25T17:37:16.459Z,8.30
2022-12-25T17:39:43.293Z,8.30
2022-12-25T17:42:10.053Z,8.30
2022-12-25T17:44:36.777Z,8.30
2022-12-25T17:47:03.870Z,8.30
2022-12-25T17:49:30.769Z,8.40
2022-12-25T17:51:57.496Z,8.30
2022-12-25T17:54:24.253Z,8.30
2022-12-25T17:56:50.975Z,8.30
2022-12-25T17:59:23.164Z,8.30
2022-12-25T18:01:49.956Z,8.30
2022-12-25T18:04:16.808Z,8.30
2022-12-25T18:06:43.538Z,8.30
2022-12-25T18:09:11.533Z,8.30
2022-12-25T18:11:39.885Z,8.30
2022-12-25T18:14:07.305Z,8.30
2022-12-25T18:16:35.863Z,8.30
2022-12-25T18:19:03.080Z,8.30
2022-12-25T18:21:32.802Z,8.40
2022-12-25T18:23:59.691Z,8.30
2022-12-25T18:26:28.675Z,8.40
2022-12-25T18:28:56.091Z,8.40
2022-12-25T18:31:42.325Z,8.30
2022-12-25T18:34:09.157Z,8.30
2022-12-25T18:36:36.900Z,8.30
2022-12-25T18:39:03.965Z,8.40
2022-12-25T18:41:52.568Z,8.40
2022-12-25T18:44:25.232Z,8.30
2022-12-25T18:46:53.140Z,8.40
2022-12-25T18:49:19.813Z,8.40
2022-12-25T18:51:47.113Z,8.30
2022-12-25T18:54:13.847Z,8.40
2022-12-25T18:56:40.542Z,8.40
2022-12-25T18:59:07.302Z,8.30
2022-12-25T19:01:34.184Z,8.40
2022-12-25T19:04:11.595Z,8.30
2022-12-25T19:06:41.864Z,8.30
2022-12-25T19:09:12.290Z,8.40
2022-12-25T19:11:46.089Z,8.30
2022-12-25T19:14:13.457Z,8.30
2022-12-25T19:16:40.447Z,8.40
2022-12-25T19:19:07.225Z,8.30
2022-12-25T19:21:45.606Z,8.30
2022-12-25T19:24:12.362Z,8.40
2022-12-25T19:26:44.013Z,8.40
2022-12-25T19:29:10.792Z,8.50
2022-12-25T19:31:38.281Z,8.40
2022-12-25T19:34:07.132Z,8.40
2022-12-25T19:36:34.483Z,8.40
2022-12-25T19:39:01.856Z,8.40
2022-12-25T19:41:28.629Z,8.30
2022-12-25T19:43:55.349Z,8.40
2022-12-25T19:46:24.212Z,8.40
2022-12-25T19:48:58.366Z,8.30
2022-12-25T19:51:26.096Z,8.40
2022-12-25T19:53:53.532Z,8.40
2022-12-25T19:56:23.757Z,8.40
2022-12-25T19:58:50.763Z,8.40
2022-12-25T20:01:18.707Z,8.40
2022-12-25T20:03:53.716Z,8.40
2022-12-25T20:06:25.855Z,8.40
2022-12-25T20:08:54.195Z,8.40
2022-12-25T20:11:22.559Z,8.30
2022-12-25T20:13:49.601Z,8.40
2022-12-25T20:16:16.691Z,8.40
2022-12-25T20:18:46.371Z,8.40
2022-12-25T20:21:21.146Z,8.40
2022-12-25T20:23:56.049Z,8.40
2022-12-25T20:26:25.516Z,8.40
2022-12-25T20:28:56.339Z,8.40
2022-12-25T20:31:29.647Z,8.40
2022-12-25T20:33:59.704Z,8.30
2022-12-25T20:36:32.644Z,8.40
2022-12-25T20:39:03.229Z,8.40
2022-12-25T20:41:30.437Z,8.40
2022-12-25T20:43:57.661Z,8.40
2022-12-25T20:46:24.878Z,8.40
2022-12-25T20:48:53.068Z,8.40
2022-12-25T20:51:21.768Z,8.40
2022-12-25T20:53:48.624Z,8.40
2022-12-25T20:56:16.753Z,8.40
2022-12-25T20:59:01.459Z,8.40
2022-12-25T21:01:29.522Z,8.40
2022-12-25T21:03:58.018Z,8.40
2022-12-25T21:06:25.199Z,8.40
2022-12-25T21:08:58.253Z,8.40
2022-12-25T21:11:24.966Z,8.40
2022-12-25T21:13:52.085Z,8.40
2022-12-25T21:16:27.707Z,8.40
2022-12-25T21:18:55.124Z,8.40
2022-12-25T21:21:24.958Z,8.40
2022-12-25T21:23:57.549Z,8.50
2022-12-25T21:26:26.383Z,8.40
2022-12-25T21:28:55.023Z,8.40
2022-12-25T21:31:24.514Z,8.40
2022-12-25T21:33:51.962Z,8.40
2022-12-25T21:36:22.061Z,8.40
2022-12-25T21:38:52.214Z,8.40
2022-12-25T21:41:18.961Z,8.40
2022-12-25T21:43:46.051Z,8.40
2022-12-25T21:46:14.332Z,8.40
2022-12-25T21:48:42.007Z,8.40
2022-12-25T21:51:30.871Z,8.40
2022-12-25T21:53:57.912Z,8.40
2022-12-25T21:56:45.563Z,8.40
2022-12-25T21:59:21.888Z,8.40
2022-12-25T22:01:49.322Z,8.40
2022-12-25T22:04:17.274Z,8.40
2022-12-25T22:07:02.978Z,8.40
2022-12-25T22:09:29.860Z,8.40
2022-12-25T22:12:15.858Z,8.40
2022-12-25T22:14:57.254Z,8.40
2022-12-25T22:17:44.290Z,8.40
2022-12-25T22:20:13.040Z,8.40
2022-12-25T22:22:39.869Z,8.40
2022-12-25T22:25:07.037Z,8.40
2022-12-25T22:27:34.897Z,8.40
2022-12-25T22:32:44.415Z,8.40
2022-12-25T22:35:17.174Z,8.40
2022-12-25T22:37:44.630Z,8.40
2022-12-25T22:40:13.246Z,8.30
2022-12-25T22:42:59.696Z,8.40
2022-12-25T22:45:26.444Z,8.30
2022-12-25T22:47:53.205Z,8.40
2022-12-25T22:50:19.951Z,8.40
2022-12-25T22:52:47.142Z,8.30
2022-12-25T22:55:16.261Z,8.40
2022-12-25T22:57:42.944Z,8.40
2022-12-25T23:00:10.031Z,8.40
2022-12-25T23:02:36.950Z,8.40
2022-12-25T23:05:04.140Z,8.40
2022-12-25T23:07:30.919Z,8.40
2022-12-25T23:09:57.617Z,8.40
2022-12-25T23:12:43.058Z,8.40
2022-12-25T23:15:09.926Z,8.40
2022-12-25T23:17:55.673Z,8.40
2022-12-25T23:20:51.838Z,8.40
2022-12-25T23:23:37.194Z,8.40
2022-12-25T23:26:09.947Z,8.40
2022-12-25T23:28:55.957Z,8.50
2022-12-25T23:31:25.082Z,8.40
2022-12-25T23:33:51.895Z,8.40
2022-12-25T23:36:18.609Z,8.40
2022-12-25T23:38:52.664Z,8.40
2022-12-25T23:41:19.502Z,8.50
2022-12-25T23:43:46.348Z,8.40
2022-12-25T23:46:13.146Z,8.50
2022-12-25T23:48:39.895Z,8.40
2022-12-25T23:51:07.682Z,8.40
2022-12-25T23:53:34.869Z,8.40
2022-12-25T23:56:01.644Z,8.40
2022-12-25T23:58:28.839Z,8.40
